MMOX/OAX METAR and TAF weather

Enter ICAO airport designator
Station Type Date Time Source
MMOX METAR 2021/01/17 18:41 UTC NOAA

MMOX 171841Z 20006KT 10SM BKN040 OVC100 24/07 A3016 RMK 8/77/ TCU FMRG ARND


Station Type Date Time Source
MMOX Decoded METAR 2021/01/17 18:41 UTC NOAA

Oaxaca / Xoxocotlan, Mexico (MMOX) 16-58N 096-44W
Jan 17, 2021 - 01:41 PM EST / 2021.01.17 1841 UTC
Wind: from the SSW (200 degrees) at 7 MPH (6 KT):0
Visibility: 10 mile(s):0
Sky conditions: overcast
Weather: Towering cumulus clouds observed
Temperature: 75 F (24 C)
Dew Point: 44 F (7 C)
Relative Humidity: 33%
Pressure (altimeter): 30.16 in. Hg (1021 hPa)
ob: MMOX 171841Z 20006KT 10SM BKN040 OVC100 24/07 A3016 RMK 8/77/ TCU FMRG ARND
cycle: 18

Station Type Date Time Source
MMOX TAF 2021/01/17 18:46 UTC NOAA

TAF MMOX 171640Z 1718/1818 34005KT P6SM SCT030 BKN100 BKN220
TEMPO 1722/1802 5SM RA BKN020CB
FM180600 34005KT P6SM VC -RA BKN020 BKN080
FM181200 04005KT 4SM HZ BKN020 BKN080

Example: see airport list